createdAt,value
2017-08-02T00:02:13.253Z,9.07
2017-08-02T00:04:40.837Z,9.80
2017-08-02T00:07:18.513Z,9.37
2017-08-02T00:09:46.132Z,10.57
2017-08-02T00:12:14.562Z,9.87
2017-08-02T00:14:42.090Z,9.67
2017-08-02T00:17:09.766Z,9.27
2017-08-02T00:19:37.358Z,9.40
2017-08-02T00:22:05.118Z,9.47
2017-08-02T00:24:33.028Z,10.33
2017-08-02T00:27:01.278Z,9.30
2017-08-02T00:29:28.972Z,9.07
2017-08-02T00:31:57.454Z,9.37
2017-08-02T00:34:25.134Z,10.50
2017-08-02T00:36:52.645Z,10.37
2017-08-02T00:39:20.360Z,11.73
2017-08-02T00:41:48.002Z,11.60
2017-08-02T00:44:15.658Z,11.90
2017-08-02T00:46:44.097Z,10.80
2017-08-02T00:49:11.606Z,11.00
2017-08-02T00:51:39.428Z,12.07
2017-08-02T00:54:07.028Z,10.63
2017-08-02T00:56:34.766Z,10.70
2017-08-02T00:59:02.420Z,11.90
2017-08-02T01:01:30.334Z,10.10
2017-08-02T01:03:57.998Z,11.20
2017-08-02T01:06:26.074Z,11.10
2017-08-02T01:08:53.745Z,10.00
2017-08-02T01:11:21.336Z,11.07
2017-08-02T01:13:49.060Z,10.20
2017-08-02T01:16:16.603Z,11.27
2017-08-02T01:18:44.208Z,10.30
2017-08-02T01:21:11.806Z,11.80
2017-08-02T01:23:39.345Z,12.10
2017-08-02T01:26:06.943Z,11.97
2017-08-02T01:28:34.519Z,12.63
2017-08-02T01:31:03.686Z,11.80
2017-08-02T01:33:31.242Z,12.03
2017-08-02T01:35:58.773Z,10.93
2017-08-02T01:38:26.296Z,12.27
2017-08-02T01:40:53.817Z,13.00
2017-08-02T01:43:21.318Z,11.67
2017-08-02T01:45:48.863Z,10.80
2017-08-02T01:48:16.401Z,13.07
2017-08-02T01:50:43.920Z,12.07
2017-08-02T01:53:11.422Z,12.80
2017-08-02T01:55:38.933Z,12.60
2017-08-02T01:58:06.442Z,12.93
2017-08-02T02:00:34.066Z,13.10
2017-08-02T02:03:01.606Z,12.30
2017-08-02T02:05:30.181Z,12.20
2017-08-02T02:07:57.742Z,12.13
2017-08-02T02:10:25.285Z,12.03
2017-08-02T02:12:53.565Z,12.20
2017-08-02T02:15:21.874Z,12.10
2017-08-02T02:17:49.385Z,12.87
2017-08-02T02:20:16.931Z,12.47
2017-08-02T02:22:45.223Z,13.50
2017-08-02T02:25:12.745Z,11.30
2017-08-02T02:27:40.250Z,13.63
2017-08-02T02:30:07.762Z,11.63
2017-08-02T02:32:35.274Z,12.90
2017-08-02T02:35:03.533Z,13.00
2017-08-02T02:37:31.047Z,12.80
2017-08-02T02:39:58.551Z,13.80
2017-08-02T02:42:26.067Z,13.90
2017-08-02T02:44:53.566Z,13.57
2017-08-02T02:47:21.084Z,13.83
2017-08-02T02:49:48.617Z,15.60
2017-08-02T02:52:16.162Z,16.73
2017-08-02T02:54:44.445Z,16.20
2017-08-02T02:57:12.724Z,15.30
2017-08-02T02:59:41.005Z,15.73
2017-08-02T03:02:09.269Z,7.00
2017-08-02T03:04:36.777Z,5.80
2017-08-02T03:07:04.270Z,5.70
2017-08-02T03:09:31.773Z,6.20
2017-08-02T03:11:59.265Z,6.20
2017-08-02T03:14:26.796Z,7.43
2017-08-02T03:16:54.334Z,8.37
2017-08-02T03:19:22.714Z,7.18
2017-08-02T03:21:50.261Z,7.10
2017-08-02T03:24:17.774Z,8.03
2017-08-02T03:26:45.294Z,7.83
2017-08-02T03:29:13.884Z,8.10
2017-08-02T03:31:41.539Z,8.20
2017-08-02T03:34:11.028Z,9.83
2017-08-02T03:36:39.533Z,10.77
2017-08-02T03:39:08.471Z,10.52
2017-08-02T03:41:36.329Z,8.70
2017-08-02T03:44:04.093Z,7.80
2017-08-02T03:46:35.871Z,8.73
2017-08-02T03:49:03.454Z,7.87
2017-08-02T03:51:31.172Z,7.63
2017-08-02T03:53:59.087Z,8.20
2017-08-02T03:56:26.740Z,6.95
2017-08-02T03:58:54.342Z,7.30
2017-08-02T04:01:22.228Z,8.30
2017-08-02T04:03:50.376Z,7.68
2017-08-02T04:06:19.202Z,8.83
2017-08-02T04:08:47.346Z,10.63
2017-08-02T04:11:15.341Z,12.93
2017-08-02T04:13:43.584Z,13.30
2017-08-02T04:16:14.472Z,16.47
2017-08-02T04:18:44.778Z,19.33
2017-08-02T04:21:14.249Z,17.47
2017-08-02T04:23:44.117Z,17.73
2017-08-02T04:26:13.577Z,21.20
2017-08-02T04:28:42.161Z,20.30
2017-08-02T04:31:11.502Z,17.60
2017-08-02T04:33:40.698Z,17.37
2017-08-02T04:36:08.553Z,16.20
2017-08-02T04:38:48.137Z,16.10
2017-08-02T04:41:26.014Z,15.40
2017-08-02T04:44:04.585Z,16.30
2017-08-02T04:46:33.138Z,14.67
2017-08-02T04:49:00.735Z,15.90
2017-08-02T04:51:29.130Z,16.07
2017-08-02T04:53:56.687Z,14.33
2017-08-02T04:56:24.270Z,14.50
2017-08-02T04:58:51.946Z,15.47
2017-08-02T05:01:19.495Z,15.10
2017-08-02T05:03:47.106Z,14.77
2017-08-02T05:06:14.665Z,14.07
2017-08-02T05:08:42.241Z,14.30
2017-08-02T05:11:09.775Z,15.17
2017-08-02T05:13:37.333Z,12.00
2017-08-02T05:16:04.963Z,13.87
2017-08-02T05:18:32.566Z,13.80
2017-08-02T05:21:00.130Z,11.80
2017-08-02T05:23:27.810Z,10.80
2017-08-02T05:25:56.191Z,11.80
2017-08-02T05:28:23.742Z,12.20
2017-08-02T05:30:52.117Z,11.77
2017-08-02T05:33:21.683Z,11.67
2017-08-02T05:35:49.226Z,11.20
2017-08-02T05:38:16.730Z,13.13
2017-08-02T05:40:44.278Z,11.60
2017-08-02T05:43:11.794Z,10.40
2017-08-02T05:45:39.413Z,11.07
2017-08-02T05:48:07.008Z,10.57
2017-08-02T05:50:34.661Z,12.10
2017-08-02T05:53:03.038Z,11.03
2017-08-02T05:55:31.393Z,9.90
2017-08-02T05:57:58.914Z,11.90
2017-08-02T06:00:26.424Z,8.93
2017-08-02T06:02:53.948Z,8.80
2017-08-02T06:05:21.490Z,7.40
2017-08-02T06:07:49.010Z,7.90
2017-08-02T06:10:17.298Z,8.70
2017-08-02T06:12:45.566Z,6.97
2017-08-02T06:15:14.717Z,7.97
2017-08-02T06:17:42.237Z,5.70
2017-08-02T06:20:10.506Z,5.77
2017-08-02T06:22:38.810Z,5.70
2017-08-02T06:25:06.365Z,5.40
2017-08-02T06:27:33.887Z,4.80
2017-08-02T06:30:01.403Z,4.70
2017-08-02T06:32:28.914Z,5.10
2017-08-02T06:34:56.422Z,5.60
2017-08-02T06:37:23.919Z,5.10
2017-08-02T06:39:51.462Z,4.77
2017-08-02T06:42:18.962Z,4.90
2017-08-02T06:44:47.249Z,4.47
2017-08-02T06:47:15.523Z,4.23
2017-08-02T06:49:43.798Z,4.03
2017-08-02T06:52:11.345Z,3.73
2017-08-02T06:54:39.686Z,3.83
2017-08-02T06:57:07.214Z,3.90
2017-08-02T06:59:35.479Z,3.10
2017-08-02T07:02:02.981Z,3.60
2017-08-02T07:04:30.474Z,3.70
2017-08-02T07:06:58.007Z,3.40
2017-08-02T07:09:25.501Z,3.00
2017-08-02T07:11:53.017Z,2.73
2017-08-02T07:14:20.557Z,3.00
2017-08-02T07:16:48.082Z,3.07
2017-08-02T07:19:15.612Z,3.00
2017-08-02T07:21:43.114Z,3.37
2017-08-02T07:24:10.622Z,3.20
2017-08-02T07:26:38.130Z,3.30
2017-08-02T07:29:06.430Z,3.23
2017-08-02T07:31:34.706Z,3.67
2017-08-02T07:34:03.078Z,3.80
2017-08-02T07:36:31.341Z,3.80
2017-08-02T07:38:58.841Z,3.37
2017-08-02T07:41:26.356Z,3.57
2017-08-02T07:43:53.961Z,4.20
2017-08-02T07:46:21.649Z,4.00
2017-08-02T07:48:49.185Z,4.00
2017-08-02T07:51:16.941Z,4.40
2017-08-02T07:53:44.496Z,4.27
2017-08-02T07:56:12.022Z,3.90
2017-08-02T07:58:39.661Z,4.10
2017-08-02T08:01:07.187Z,3.77
2017-08-02T08:03:34.725Z,4.30
2017-08-02T08:06:02.238Z,4.00
2017-08-02T08:08:29.770Z,3.60
2017-08-02T08:10:57.289Z,3.90
2017-08-02T11:29:26.906Z,7.80
2017-08-02T11:31:54.403Z,7.50
2017-08-02T11:34:21.909Z,7.93
2017-08-02T11:36:49.401Z,8.17
2017-08-02T11:39:20.854Z,7.83
2017-08-02T11:41:48.366Z,7.97
2017-08-02T11:44:19.571Z,8.57
2017-08-02T11:46:47.058Z,8.20
2017-08-02T11:49:14.598Z,8.77
2017-08-02T11:51:42.097Z,8.20
2017-08-02T11:54:09.658Z,8.10
2017-08-02T11:56:37.170Z,8.10
2017-08-02T11:59:04.661Z,8.13
2017-08-02T12:01:32.170Z,8.27
2017-08-02T12:04:00.427Z,8.10
2017-08-02T12:06:27.929Z,7.10
2017-08-02T12:08:55.429Z,7.73
2017-08-02T12:11:22.938Z,7.80
2017-08-02T12:13:50.454Z,8.00
2017-08-02T12:16:17.989Z,7.80
2017-08-02T12:18:45.481Z,8.17
2017-08-02T12:21:12.974Z,9.57
2017-08-02T12:23:40.486Z,8.23
2017-08-02T12:26:07.978Z,8.13
2017-08-02T12:28:36.245Z,8.33
2017-08-02T12:31:04.498Z,8.60
2017-08-02T12:33:32.001Z,8.60
2017-08-02T12:35:59.494Z,9.20
2017-08-02T12:38:27.002Z,7.60
2017-08-02T12:40:55.257Z,7.90
2017-08-02T12:43:22.776Z,6.87
2017-08-02T12:45:50.298Z,8.30
2017-08-02T12:48:17.838Z,7.73
2017-08-02T12:50:45.556Z,8.97
2017-08-02T12:53:13.110Z,8.82
2017-08-02T12:55:40.643Z,8.47
2017-08-02T12:58:19.217Z,7.87
2017-08-02T13:00:46.725Z,8.37
2017-08-02T13:03:14.993Z,8.60
2017-08-02T13:05:43.265Z,8.77
2017-08-02T13:08:10.757Z,9.60
2017-08-02T13:10:38.270Z,9.87
2017-08-02T13:13:05.771Z,10.03
2017-08-02T13:15:33.297Z,8.93
2017-08-02T13:18:00.789Z,8.83
2017-08-02T13:20:28.285Z,8.60
2017-08-02T13:22:55.793Z,9.43
2017-08-02T13:25:24.046Z,9.77
2017-08-02T13:27:51.554Z,8.70
2017-08-02T13:30:19.124Z,10.07
2017-08-02T13:32:46.633Z,8.20
2017-08-02T13:35:14.128Z,9.37
2017-08-02T13:37:41.638Z,9.47
2017-08-02T13:40:09.130Z,8.70
2017-08-02T13:42:37.390Z,8.80
2017-08-02T13:45:04.902Z,8.10
2017-08-02T13:47:32.410Z,9.20
2017-08-02T13:49:59.949Z,8.30
2017-08-02T13:52:27.475Z,8.23
2017-08-02T13:54:54.982Z,7.70
2017-08-02T13:57:22.474Z,8.17
2017-08-02T13:59:50.002Z,7.57
2017-08-02T14:02:17.503Z,8.30
2017-08-02T14:04:45.005Z,8.43
2017-08-02T14:07:12.518Z,8.90
2017-08-02T14:09:40.005Z,9.20
2017-08-02T14:12:07.519Z,9.33
2017-08-02T14:14:35.785Z,9.77
2017-08-02T14:17:04.070Z,7.70
2017-08-02T14:19:32.336Z,8.13
2017-08-02T14:21:59.869Z,8.50
2017-08-02T14:24:27.365Z,8.70
2017-08-02T14:26:55.957Z,8.10
2017-08-02T14:29:23.458Z,7.60
2017-08-02T14:31:51.003Z,6.67
2017-08-02T14:34:18.489Z,7.50
2017-08-02T14:36:45.978Z,8.70
2017-08-02T14:39:13.489Z,7.47
2017-08-02T14:41:40.982Z,7.60
2017-08-02T14:44:08.496Z,7.33
2017-08-02T14:46:35.989Z,7.20
2017-08-02T14:49:03.497Z,7.30
2017-08-02T14:51:30.995Z,6.97
2017-08-02T14:53:58.525Z,7.43
2017-08-02T14:56:26.022Z,7.90
2017-08-02T14:58:53.515Z,7.53
2017-08-02T15:01:21.793Z,7.93
2017-08-02T15:03:50.054Z,8.40
2017-08-02T15:06:17.562Z,8.40
2017-08-02T15:08:45.060Z,8.10
2017-08-02T15:11:12.577Z,8.07
2017-08-02T15:13:40.090Z,7.47
2017-08-02T15:16:07.594Z,8.90
2017-08-02T15:18:35.089Z,9.20
2017-08-02T15:21:02.623Z,8.40
2017-08-02T15:23:30.118Z,7.83
2017-08-02T15:25:57.605Z,7.20
2017-08-02T15:28:26.713Z,7.73
2017-08-02T15:30:55.034Z,8.80
2017-08-02T15:33:22.554Z,8.07
2017-08-02T15:35:50.048Z,8.03
2017-08-02T15:38:18.426Z,8.00
2017-08-02T15:40:46.465Z,8.33
2017-08-02T15:43:14.734Z,8.53
2017-08-02T15:45:42.996Z,8.43
2017-08-02T15:48:10.578Z,9.00
2017-08-02T15:50:38.072Z,8.77
2017-08-02T15:53:05.597Z,8.57
2017-08-02T15:55:33.850Z,8.67
2017-08-02T15:58:02.122Z,8.73
2017-08-02T16:00:29.630Z,7.80
2017-08-02T16:02:57.176Z,8.03
2017-08-02T16:05:24.686Z,8.60
2017-08-02T16:07:52.173Z,8.30
2017-08-02T16:10:20.442Z,8.57
2017-08-02T16:12:47.934Z,9.20
2017-08-02T16:15:15.449Z,8.73
2017-08-02T16:17:42.946Z,8.57
2017-08-02T16:20:10.485Z,8.50
2017-08-02T16:22:38.744Z,8.63
2017-08-02T16:25:06.247Z,7.50
2017-08-02T16:27:33.749Z,6.83
2017-08-02T16:30:01.245Z,7.40
2017-08-02T16:32:29.516Z,7.80
2017-08-02T16:34:57.781Z,7.30
2017-08-02T16:37:25.292Z,7.93
2017-08-02T16:39:52.785Z,7.50
2017-08-02T16:42:20.299Z,8.00
2017-08-02T16:44:47.837Z,8.50
2017-08-02T16:47:16.158Z,8.20
2017-08-02T16:49:43.645Z,7.90
2017-08-02T16:52:11.185Z,7.37
2017-08-02T16:54:38.702Z,7.20
2017-08-02T16:57:06.964Z,7.67
2017-08-02T16:59:34.506Z,8.50
2017-08-02T17:02:01.999Z,7.90
2017-08-02T17:04:29.514Z,8.77
2017-08-02T17:06:57.822Z,9.70
2017-08-02T17:09:26.101Z,8.53
2017-08-02T17:11:54.361Z,8.70
2017-08-02T17:14:21.874Z,8.40
2017-08-02T17:16:49.398Z,9.17
2017-08-02T17:19:17.691Z,9.27
2017-08-02T17:21:45.186Z,8.63
2017-08-02T17:24:12.714Z,8.63
2017-08-02T17:26:40.213Z,8.50
2017-08-02T17:29:08.534Z,8.50
2017-08-02T17:31:37.998Z,8.37
2017-08-02T17:34:05.481Z,8.77
2017-08-02T17:36:32.981Z,8.70
2017-08-02T17:39:02.321Z,8.20
2017-08-02T17:41:29.839Z,8.93
2017-08-02T17:43:57.335Z,9.53
2017-08-02T17:46:24.849Z,9.30
2017-08-02T17:48:53.807Z,10.70
2017-08-02T17:51:21.325Z,10.10
2017-08-02T17:53:48.816Z,11.60
2017-08-02T17:56:16.321Z,10.20
2017-08-02T17:58:43.813Z,8.70
2017-08-02T18:01:11.333Z,10.00
2017-08-02T18:03:39.006Z,9.63
2017-08-02T18:06:06.525Z,9.83
2017-08-02T18:08:34.077Z,10.37
2017-08-02T18:11:01.608Z,9.83
2017-08-02T18:13:29.158Z,9.73
2017-08-02T18:15:56.714Z,9.60
2017-08-02T18:18:24.286Z,9.40
2017-08-02T18:20:51.909Z,8.63
2017-08-02T18:23:20.181Z,9.60
2017-08-02T18:25:47.713Z,8.90
2017-08-02T18:28:15.247Z,9.20
2017-08-02T18:30:42.736Z,9.97
2017-08-02T18:33:10.451Z,9.37
2017-08-02T18:35:38.039Z,10.60
2017-08-02T18:38:05.526Z,9.50
2017-08-02T18:40:33.034Z,11.57
2017-08-02T18:43:00.530Z,14.00
2017-08-02T18:45:28.098Z,9.60
2017-08-02T18:47:55.593Z,12.73
2017-08-02T18:50:23.907Z,12.10
2017-08-02T18:52:51.475Z,11.30
2017-08-02T18:55:19.027Z,13.70
2017-08-02T18:57:46.537Z,11.80
2017-08-02T19:00:14.149Z,13.30
2017-08-02T19:02:41.718Z,12.80
2017-08-02T19:05:09.275Z,14.73
2017-08-02T19:07:36.806Z,14.37
2017-08-02T19:10:04.352Z,13.23
2017-08-02T19:12:32.664Z,13.70
2017-08-02T19:15:00.239Z,12.33
2017-08-02T19:17:27.803Z,12.87
2017-08-02T19:19:55.378Z,16.20
2017-08-02T19:22:22.946Z,13.83
2017-08-02T19:24:50.458Z,13.50
2017-08-02T19:27:18.011Z,12.63
2017-08-02T19:29:45.597Z,14.03
2017-08-02T19:32:13.267Z,14.90
2017-08-02T19:34:40.769Z,15.63
2017-08-02T19:37:09.110Z,18.43
2017-08-02T19:39:36.669Z,15.03
2017-08-02T19:42:04.185Z,13.90
2017-08-02T19:44:31.689Z,14.43
2017-08-02T19:46:59.209Z,14.07
2017-08-02T19:49:26.766Z,15.77
2017-08-02T19:51:54.346Z,15.00
2017-08-02T19:54:21.907Z,14.80
2017-08-02T19:56:49.473Z,15.23
2017-08-02T19:59:17.145Z,15.00
2017-08-02T20:01:44.637Z,13.80
2017-08-02T20:04:12.157Z,18.40
2017-08-02T20:06:39.713Z,14.37
2017-08-02T20:09:09.192Z,13.67
2017-08-02T20:11:37.458Z,15.53
2017-08-02T20:14:05.047Z,13.87
2017-08-02T20:16:33.425Z,12.80
2017-08-02T20:19:01.004Z,14.30
2017-08-02T20:21:28.566Z,13.73
2017-08-02T20:23:56.061Z,14.60
2017-08-02T20:26:23.794Z,14.33
2017-08-02T20:28:51.290Z,14.80
2017-08-02T20:31:18.895Z,13.83
2017-08-02T20:33:46.480Z,14.17
2017-08-02T20:36:14.054Z,15.43
2017-08-02T20:38:41.613Z,15.67
2017-08-02T20:41:09.122Z,15.80
2017-08-02T20:43:37.385Z,14.40
2017-08-02T20:46:04.930Z,15.40
2017-08-02T20:48:32.430Z,15.53
2017-08-02T20:51:00.010Z,15.70
2017-08-02T20:53:27.521Z,16.07
2017-08-02T20:55:55.072Z,15.57
2017-08-02T20:58:22.601Z,16.53
2017-08-02T21:00:50.174Z,15.70
2017-08-02T21:03:17.688Z,16.37
2017-08-02T21:05:45.267Z,15.70
2017-08-02T21:08:12.941Z,15.37
2017-08-02T21:10:40.445Z,15.30
2017-08-02T21:13:07.990Z,15.63
2017-08-02T21:15:35.481Z,15.30
2017-08-02T21:18:03.748Z,16.63
2017-08-02T21:20:32.026Z,15.47
2017-08-02T21:22:59.586Z,14.67
2017-08-02T21:25:27.903Z,14.43
2017-08-02T21:27:55.405Z,14.57
2017-08-02T21:30:23.677Z,15.20
2017-08-02T21:32:51.201Z,14.70
2017-08-02T21:37:53.341Z,15.73
2017-08-02T21:40:21.638Z,15.60
2017-08-02T21:42:49.142Z,14.97
2017-08-02T21:45:16.646Z,15.40
2017-08-02T21:47:44.960Z,16.03
2017-08-02T21:50:22.382Z,15.87
2017-08-02T21:52:49.914Z,15.77
2017-08-02T21:55:17.421Z,15.80
2017-08-02T21:57:44.941Z,14.83
2017-08-02T22:00:12.445Z,15.00
2017-08-02T22:02:40.725Z,14.73
2017-08-02T22:05:09.045Z,15.73
2017-08-02T22:07:36.566Z,15.23
2017-08-02T22:10:04.850Z,14.00
2017-08-02T22:12:33.163Z,14.20
2017-08-02T22:15:00.824Z,15.07
2017-08-02T22:17:28.686Z,15.87
2017-08-02T22:19:56.278Z,16.03
2017-08-02T22:22:23.882Z,14.90
2017-08-02T22:24:54.324Z,15.30
2017-08-02T22:27:22.154Z,15.43
2017-08-02T22:29:50.482Z,14.50
2017-08-02T22:32:18.855Z,14.10
2017-08-02T22:34:46.637Z,14.63
2017-08-02T22:37:14.219Z,14.40
2017-08-02T22:39:42.058Z,14.00
2017-08-02T22:42:09.642Z,15.30
2017-08-02T22:44:37.133Z,15.50
2017-08-02T22:47:04.645Z,16.13
2017-08-02T22:49:32.142Z,15.60
2017-08-02T22:51:59.657Z,16.17
2017-08-02T22:57:01.159Z,15.43
2017-08-02T22:59:28.653Z,13.93
2017-08-02T23:01:56.174Z,16.67
2017-08-02T23:04:25.453Z,15.63
2017-08-02T23:06:55.049Z,15.80
2017-08-02T23:09:22.546Z,16.33
2017-08-02T23:11:50.062Z,16.20
2017-08-02T23:14:17.577Z,16.53
2017-08-02T23:16:45.080Z,14.43
2017-08-02T23:19:12.621Z,14.73
2017-08-02T23:21:40.912Z,16.30
2017-08-02T23:24:08.477Z,14.83
2017-08-02T23:26:36.005Z,14.27
2017-08-02T23:29:04.325Z,15.07
2017-08-02T23:31:32.548Z,16.20
2017-08-02T23:34:00.050Z,16.67
2017-08-02T23:36:27.565Z,16.77
2017-08-02T23:38:55.066Z,15.37
2017-08-02T23:41:22.706Z,15.57
2017-08-02T23:43:50.969Z,15.47
2017-08-02T23:46:18.517Z,16.57
2017-08-02T23:48:46.018Z,15.80
2017-08-02T23:51:13.630Z,16.00
2017-08-02T23:53:41.174Z,16.07
2017-08-02T23:56:08.700Z,15.90
2017-08-02T23:58:37.003Z,17.70
